createdAt,value
2019-04-28T00:01:03.304Z,0.90
2019-04-28T00:01:43.381Z,0.80
2019-04-28T00:02:22.484Z,0.90
2019-04-28T00:03:00.758Z,1.60
2019-04-28T00:03:37.116Z,1.30
2019-04-28T00:04:13.511Z,1.00
2019-04-28T00:04:51.446Z,1.03
2019-04-28T00:05:28.836Z,1.10
2019-04-28T00:06:06.314Z,0.80
2019-04-28T00:06:44.632Z,1.80
2019-04-28T00:07:21.741Z,0.70
2019-04-28T00:08:01.371Z,0.83
2019-04-28T00:08:38.952Z,1.10
2019-04-28T00:09:16.445Z,0.60
2019-04-28T00:09:53.458Z,1.00
2019-04-28T00:10:32.150Z,0.57
2019-04-28T00:11:13.418Z,0.90
2019-04-28T00:11:51.609Z,0.70
2019-04-28T00:12:30.879Z,0.60
2019-04-28T00:13:07.689Z,0.80
2019-04-28T00:13:44.342Z,0.77
2019-04-28T00:14:21.879Z,1.30
2019-04-28T00:14:58.544Z,0.67
2019-04-28T00:15:35.740Z,0.70
2019-04-28T00:16:12.797Z,1.20
2019-04-28T00:16:51.080Z,0.80
2019-04-28T00:17:27.684Z,0.70
2019-04-28T00:18:04.261Z,1.33
2019-04-28T00:18:41.565Z,0.93
2019-04-28T00:19:20.762Z,0.60
2019-04-28T00:20:01.240Z,0.83
2019-04-28T00:20:50.976Z,0.93
2019-04-28T00:21:51.569Z,0.90
2019-04-28T00:22:35.241Z,0.80
2019-04-28T00:23:22.961Z,1.33
2019-04-28T00:24:18.590Z,1.00
2019-04-28T00:25:28.818Z,0.90
2019-04-28T00:26:21.157Z,1.03
2019-04-28T00:26:59.143Z,1.43
2019-04-28T00:27:35.951Z,0.80
2019-04-28T00:28:14.415Z,0.80
2019-04-28T00:28:51.355Z,1.43
2019-04-28T00:29:38.482Z,0.90
2019-04-28T00:30:07.566Z,1.50
2019-04-28T00:30:43.830Z,0.97
2019-04-28T00:31:21.322Z,1.43
2019-04-28T00:31:57.758Z,1.60
2019-04-28T00:32:34.092Z,0.77
2019-04-28T00:33:11.707Z,1.20
2019-04-28T00:33:48.275Z,1.60
2019-04-28T00:34:25.211Z,1.00
2019-04-28T00:35:02.306Z,1.10
2019-04-28T00:35:39.520Z,1.50
2019-04-28T00:36:15.886Z,1.00
2019-04-28T00:37:11.138Z,1.10
2019-04-28T00:37:47.824Z,1.43
2019-04-28T00:38:24.558Z,1.20
2019-04-28T00:39:01.564Z,1.20
2019-04-28T00:39:37.957Z,1.53
2019-04-28T00:40:14.442Z,2.30
2019-04-28T00:40:51.167Z,1.40
2019-04-28T00:41:30.760Z,1.43
2019-04-28T00:42:06.881Z,1.90
2019-04-28T00:42:43.482Z,1.23
2019-04-28T00:43:21.721Z,1.50
2019-04-28T00:44:01.944Z,1.37
2019-04-28T00:44:43.064Z,1.60
2019-04-28T00:45:17.800Z,1.53
2019-04-28T00:45:56.259Z,1.30
2019-04-28T00:46:35.045Z,1.53
2019-04-28T00:47:11.255Z,1.50
2019-04-28T00:47:47.674Z,1.93
2019-04-28T00:48:24.482Z,1.40
2019-04-28T00:49:02.104Z,1.37
2019-04-28T00:49:47.465Z,1.70
2019-04-28T00:50:23.733Z,1.37
2019-04-28T00:51:01.795Z,1.33
2019-04-28T00:51:41.475Z,1.73
2019-04-28T00:52:19.044Z,1.80
2019-04-28T00:52:55.379Z,1.83
2019-04-28T00:53:31.774Z,1.63
2019-04-28T00:54:08.030Z,2.07
2019-04-28T00:54:44.934Z,2.17
2019-04-28T00:55:21.273Z,2.07
2019-04-28T00:55:58.116Z,2.10
2019-04-28T00:56:34.445Z,1.30
2019-04-28T00:57:11.298Z,1.30
2019-04-28T00:57:50.925Z,1.30
2019-04-28T00:58:28.639Z,1.90
2019-04-28T00:59:07.515Z,1.60
2019-04-28T00:59:53.956Z,1.40
2019-04-28T01:00:24.551Z,1.60
2019-04-28T01:01:04.656Z,2.20
2019-04-28T01:01:47.600Z,1.53
2019-04-28T01:02:51.826Z,1.93
2019-04-28T01:03:28.511Z,1.70
2019-04-28T01:04:06.260Z,1.57
2019-04-28T01:04:43.367Z,2.30
2019-04-28T01:05:21.700Z,1.80
2019-04-28T01:05:57.934Z,1.27
2019-04-28T01:06:34.232Z,1.70
2019-04-28T01:07:11.502Z,1.70
2019-04-28T01:07:48.550Z,1.60
2019-04-28T01:08:24.701Z,1.67
2019-04-28T01:09:03.800Z,1.30
2019-04-28T01:09:41.459Z,1.70
2019-04-28T01:10:17.561Z,1.60
2019-04-28T01:10:53.931Z,1.23
2019-04-28T01:11:31.659Z,2.20
2019-04-28T01:12:08.121Z,1.93
2019-04-28T01:12:46.637Z,2.23
2019-04-28T01:13:23.824Z,1.53
2019-04-28T01:14:01.723Z,1.80
2019-04-28T01:14:38.620Z,2.10
2019-04-28T01:15:24.019Z,2.40
2019-04-28T01:16:15.557Z,1.40
2019-04-28T01:17:01.756Z,1.13
2019-04-28T01:17:53.997Z,1.83
2019-04-28T01:18:42.461Z,1.57
2019-04-28T01:19:30.062Z,1.60
2019-04-28T01:20:09.788Z,1.70
2019-04-28T01:20:46.007Z,1.10
2019-04-28T01:21:24.810Z,1.53
2019-04-28T01:22:15.841Z,2.33
2019-04-28T01:22:52.547Z,1.43
2019-04-28T01:23:30.268Z,1.20
2019-04-28T01:24:07.098Z,2.07
2019-04-28T01:24:44.737Z,1.40
2019-04-28T01:25:21.638Z,1.37
2019-04-28T01:25:57.901Z,1.70
2019-04-28T01:26:35.041Z,1.47
2019-04-28T01:27:26.221Z,1.70
2019-04-28T01:28:02.423Z,1.30
2019-04-28T01:28:39.877Z,1.83
2019-04-28T01:29:16.139Z,1.70
2019-04-28T01:30:05.177Z,1.50
2019-04-28T01:30:51.995Z,1.83
2019-04-28T01:31:39.999Z,2.13
2019-04-28T01:32:47.488Z,1.73
2019-04-28T01:33:46.370Z,1.90
2019-04-28T01:34:24.211Z,1.20
2019-04-28T01:35:01.311Z,2.30
2019-04-28T01:35:39.192Z,2.20
2019-04-28T01:36:15.847Z,1.27
2019-04-28T01:36:52.193Z,2.57
2019-04-28T01:37:29.687Z,1.60
2019-04-28T01:38:06.960Z,1.80
2019-04-28T01:38:43.948Z,1.33
2019-04-28T01:39:21.146Z,1.50
2019-04-28T01:39:59.670Z,1.50
2019-04-28T01:40:35.877Z,2.07
2019-04-28T01:41:12.453Z,1.93
2019-04-28T01:41:49.584Z,1.90
2019-04-28T01:42:26.791Z,2.17
2019-04-28T01:43:05.572Z,1.90
2019-04-28T01:43:42.142Z,1.93
2019-04-28T01:44:19.834Z,1.70
2019-04-28T01:44:56.205Z,1.40
2019-04-28T01:45:32.574Z,1.20
2019-04-28T01:46:10.176Z,1.40
2019-04-28T01:46:46.497Z,1.27
2019-04-28T01:47:23.397Z,1.50
2019-04-28T01:48:00.533Z,1.33
2019-04-28T01:48:37.598Z,1.20
2019-04-28T01:49:14.283Z,1.13
2019-04-28T01:49:50.591Z,1.40
2019-04-28T01:50:27.513Z,1.27
2019-04-28T01:51:04.458Z,1.47
2019-04-28T01:51:41.580Z,1.07
2019-04-28T01:52:20.253Z,1.30
2019-04-28T01:52:56.457Z,1.20
2019-04-28T01:53:33.493Z,1.87
2019-04-28T01:54:12.625Z,1.33
2019-04-28T01:54:50.187Z,0.73
2019-04-28T01:55:26.588Z,1.70
2019-04-28T01:56:03.531Z,1.27
2019-04-28T01:56:40.433Z,1.50
2019-04-28T01:57:21.322Z,1.10
2019-04-28T01:58:01.065Z,1.40
2019-04-28T01:58:37.979Z,0.97
2019-04-28T01:59:14.725Z,1.53
2019-04-28T01:59:51.049Z,1.50
2019-04-28T02:00:29.576Z,1.20
2019-04-28T02:01:05.831Z,1.03
2019-04-28T02:01:42.334Z,1.30
2019-04-28T02:02:19.900Z,0.90
2019-04-28T02:02:56.188Z,1.30
2019-04-28T02:03:32.683Z,1.73
2019-04-28T02:04:10.148Z,1.57
2019-04-28T02:04:46.286Z,1.73
2019-04-28T02:05:22.931Z,1.47
2019-04-28T02:06:00.168Z,1.90
2019-04-28T02:06:36.538Z,1.70
2019-04-28T02:07:13.544Z,1.83
2019-04-28T02:07:50.579Z,2.40
2019-04-28T02:08:26.962Z,1.53
2019-04-28T02:09:03.256Z,1.13
2019-04-28T02:09:40.366Z,2.00
2019-04-28T02:10:16.743Z,1.93
2019-04-28T02:10:53.324Z,1.57
2019-04-28T02:11:31.716Z,2.37
2019-04-28T02:12:10.534Z,1.60
2019-04-28T02:12:50.328Z,1.97
2019-04-28T02:13:26.840Z,1.37
2019-04-28T02:14:03.053Z,1.43
2019-04-28T02:14:40.375Z,1.60
2019-04-28T02:15:20.293Z,1.30
2019-04-28T02:15:56.863Z,1.50
2019-04-28T02:16:33.052Z,1.70
2019-04-28T02:17:10.496Z,1.33
2019-04-28T02:17:46.883Z,1.03
2019-04-28T02:18:23.195Z,1.10
2019-04-28T02:19:02.249Z,1.40
2019-04-28T02:19:41.157Z,0.80
2019-04-28T02:20:20.265Z,1.00
2019-04-28T02:21:04.010Z,1.13
2019-04-28T02:22:03.896Z,0.90
2019-04-28T02:22:54.074Z,1.00
2019-04-28T02:23:31.545Z,1.53
2019-04-28T02:24:25.622Z,1.00
2019-04-28T02:25:02.011Z,1.30
2019-04-28T02:25:42.317Z,0.80
2019-04-28T02:26:20.893Z,0.77
2019-04-28T02:27:00.830Z,1.60
2019-04-28T02:27:37.388Z,1.17
2019-04-28T02:28:14.050Z,1.03
2019-04-28T02:28:50.824Z,1.33
2019-04-28T02:29:30.050Z,0.70
2019-04-28T02:30:11.362Z,0.90
2019-04-28T02:30:50.324Z,1.03
2019-04-28T02:31:25.647Z,1.27
2019-04-28T02:32:02.673Z,1.00
2019-04-28T02:32:40.687Z,1.27
2019-04-28T02:33:17.295Z,1.43
2019-04-28T02:33:53.938Z,1.60
2019-04-28T02:34:31.325Z,1.63
2019-04-28T02:35:10.705Z,1.00
2019-04-28T02:35:51.171Z,1.07
2019-04-28T02:36:31.094Z,1.10
2019-04-28T02:37:06.128Z,1.63
2019-04-28T02:37:44.688Z,1.10
2019-04-28T02:38:21.238Z,0.90
2019-04-28T02:39:00.759Z,1.37
2019-04-28T02:39:37.244Z,1.17
2019-04-28T02:40:14.156Z,1.53
2019-04-28T02:40:51.233Z,1.37
2019-04-28T02:41:30.638Z,1.20
2019-04-28T02:42:10.944Z,0.70
2019-04-28T02:42:52.121Z,1.10
2019-04-28T02:43:30.767Z,1.50
2019-04-28T02:44:07.031Z,0.83
2019-04-28T02:44:43.378Z,1.17
2019-04-28T02:45:22.464Z,1.43
2019-04-28T02:46:00.709Z,1.07
2019-04-28T02:46:40.736Z,1.30
2019-04-28T02:47:17.326Z,1.47
2019-04-28T02:47:57.674Z,1.23
2019-04-28T02:48:35.608Z,1.03
2019-04-28T02:49:15.644Z,1.40
2019-04-28T02:50:01.058Z,0.90
2019-04-28T02:51:01.653Z,1.00
2019-04-28T02:51:43.933Z,1.27
2019-04-28T02:52:37.666Z,1.00
2019-04-28T02:53:23.740Z,1.20
2019-04-28T02:54:00.678Z,0.67
2019-04-28T02:54:40.402Z,0.93
2019-04-28T02:55:17.774Z,1.30
2019-04-28T02:55:56.234Z,1.10
2019-04-28T02:56:32.463Z,1.17
2019-04-28T02:57:10.762Z,0.90
2019-04-28T02:57:46.998Z,0.80
2019-04-28T02:58:24.509Z,0.80
2019-04-28T02:59:01.243Z,0.80
2019-04-28T02:59:40.920Z,0.77
2019-04-28T03:00:15.785Z,1.17
2019-04-28T03:01:02.860Z,1.17
2019-04-28T03:01:31.486Z,1.03
2019-04-28T03:02:10.371Z,1.00
2019-04-28T03:02:47.139Z,0.87
2019-04-28T03:03:30.806Z,0.90
2019-04-28T03:04:07.442Z,0.73
2019-04-28T03:04:43.970Z,0.80
2019-04-28T03:05:23.020Z,1.20
2019-04-28T03:06:01.365Z,1.30
2019-04-28T03:06:41.140Z,0.90
2019-04-28T03:07:17.522Z,0.97
2019-04-28T03:07:55.257Z,1.23
2019-04-28T03:08:34.465Z,0.97
2019-04-28T03:09:10.870Z,1.50
2019-04-28T03:09:51.969Z,1.10
2019-04-28T03:10:30.714Z,0.80
2019-04-28T03:11:06.331Z,0.93
2019-04-28T03:11:43.106Z,0.70
2019-04-28T03:12:21.529Z,0.70
2019-04-28T03:13:10.822Z,1.30
2019-04-28T03:13:51.257Z,0.50
2019-04-28T03:14:30.244Z,0.90
2019-04-28T03:15:07.292Z,0.83
2019-04-28T03:15:51.538Z,0.77
2019-04-28T03:16:30.393Z,0.90
2019-04-28T03:17:10.715Z,0.83
2019-04-28T03:17:52.445Z,0.97
2019-04-28T03:18:27.887Z,0.90
2019-04-28T03:19:07.469Z,0.77
2019-04-28T03:19:43.925Z,0.80
2019-04-28T03:20:21.543Z,0.87
2019-04-28T03:20:57.988Z,0.90
2019-04-28T03:21:34.386Z,0.70
2019-04-28T03:22:11.702Z,0.80
2019-04-28T03:22:50.806Z,0.83
2019-04-28T03:23:26.119Z,1.03
2019-04-28T03:24:04.761Z,0.73
2019-04-28T03:24:42.497Z,0.60
2019-04-28T03:25:52.737Z,0.83
2019-04-28T03:26:43.994Z,0.70
2019-04-28T03:27:51.243Z,0.80
2019-04-28T03:28:41.363Z,0.60
2019-04-28T03:29:35.908Z,0.80
2019-04-28T03:30:34.861Z,0.97
2019-04-28T03:32:16.405Z,0.83
2019-04-28T03:32:52.468Z,1.10
2019-04-28T03:33:25.607Z,1.07
2019-04-28T03:34:03.391Z,0.80
2019-04-28T03:34:54.181Z,1.60
2019-04-28T03:35:32.618Z,1.00
2019-04-28T03:36:14.785Z,2.20
2019-04-28T03:36:47.028Z,1.00
2019-04-28T03:37:32.451Z,1.00
2019-04-28T03:38:10.750Z,0.97
2019-04-28T03:38:47.323Z,1.10
2019-04-28T03:39:30.342Z,1.00
2019-04-28T03:40:11.745Z,1.00
2019-04-28T03:40:51.037Z,1.23
2019-04-28T03:41:31.198Z,1.17
2019-04-28T03:42:21.552Z,0.80
2019-04-28T03:43:02.868Z,1.40
2019-04-28T03:43:43.566Z,0.93
2019-04-28T03:44:20.903Z,0.80
2019-04-28T03:45:01.028Z,1.10
2019-04-28T03:45:47.317Z,1.30
2019-04-28T03:46:30.487Z,1.13
2019-04-28T03:47:10.483Z,0.93
2019-04-28T03:47:46.333Z,1.10
2019-04-28T03:48:30.839Z,1.10
2019-04-28T03:49:12.980Z,0.90
2019-04-28T03:49:50.534Z,1.43
2019-04-28T03:50:27.198Z,1.47
2019-04-28T03:51:03.549Z,1.00
2019-04-28T03:51:40.796Z,1.00
2019-04-28T03:52:17.151Z,1.27
2019-04-28T03:52:54.044Z,1.30
2019-04-28T03:53:31.281Z,1.07
2019-04-28T03:54:10.265Z,1.07
2019-04-28T03:54:47.542Z,0.90
2019-04-28T03:55:25.640Z,1.10
2019-04-28T03:56:04.884Z,0.90
2019-04-28T03:56:44.564Z,0.93
2019-04-28T03:57:21.914Z,1.20
2019-04-28T03:58:00.971Z,0.70
2019-04-28T03:58:37.143Z,1.17
2019-04-28T03:59:13.763Z,1.20
2019-04-28T03:59:51.124Z,1.50
2019-04-28T04:00:30.923Z,0.90
2019-04-28T04:01:06.045Z,1.00
2019-04-28T04:01:59.261Z,1.30
2019-04-28T04:02:31.383Z,1.00
2019-04-28T04:03:10.665Z,0.60
2019-04-28T04:03:45.915Z,0.80
2019-04-28T04:04:22.280Z,1.30
2019-04-28T04:05:03.404Z,0.80
2019-04-28T04:05:36.913Z,0.97
2019-04-28T04:06:14.473Z,1.00
2019-04-28T04:06:50.997Z,1.23
2019-04-28T04:07:31.201Z,0.80
2019-04-28T04:08:07.553Z,1.20
2019-04-28T04:08:45.211Z,1.00
2019-04-28T04:09:24.249Z,0.73
2019-04-28T04:10:14.426Z,1.10
2019-04-28T04:11:10.906Z,0.80
2019-04-28T04:12:07.063Z,0.83
2019-04-28T04:12:53.565Z,1.10
2019-04-28T04:13:51.203Z,1.03
2019-04-28T04:14:34.129Z,1.20
2019-04-28T04:15:23.566Z,0.80
2019-04-28T04:16:10.356Z,1.03
2019-04-28T04:17:00.954Z,0.70
2019-04-28T04:17:41.508Z,0.80
2019-04-28T04:18:23.102Z,1.10
2019-04-28T04:19:00.718Z,1.20
2019-04-28T04:19:40.504Z,0.70
2019-04-28T04:20:23.767Z,1.10
2019-04-28T04:21:01.012Z,0.87
2019-04-28T04:21:42.736Z,0.83
2019-04-28T04:22:21.333Z,0.80
2019-04-28T04:23:01.431Z,1.10
2019-04-28T04:23:41.159Z,0.97
2019-04-28T04:24:20.864Z,1.03
2019-04-28T04:25:01.252Z,0.83
2019-04-28T04:25:41.976Z,0.90
2019-04-28T04:26:21.399Z,1.10
2019-04-28T04:27:00.806Z,0.97
2019-04-28T04:27:37.376Z,1.00
2019-04-28T04:28:20.268Z,1.13
2019-04-28T04:28:55.807Z,0.70
2019-04-28T04:29:34.922Z,0.87
2019-04-28T04:30:11.296Z,0.73
2019-04-28T04:31:03.569Z,1.30
2019-04-28T04:31:42.627Z,1.43
2019-04-28T04:32:24.232Z,0.80
2019-04-28T04:32:57.221Z,1.07
2019-04-28T04:33:34.600Z,1.00
2019-04-28T04:34:10.888Z,1.50
2019-04-28T04:34:47.194Z,2.00
2019-04-28T04:35:23.609Z,0.83
2019-04-28T04:36:07.430Z,0.50
2019-04-28T04:36:45.243Z,0.93
2019-04-28T04:37:43.010Z,1.17
2019-04-28T04:38:21.894Z,0.80
2019-04-28T04:39:01.399Z,0.77
2019-04-28T04:39:40.721Z,0.80
2019-04-28T04:40:17.279Z,0.90
2019-04-28T04:40:56.517Z,0.50
2019-04-28T04:41:32.775Z,0.97
2019-04-28T04:42:10.501Z,1.03
2019-04-28T04:42:46.995Z,1.40
2019-04-28T04:43:24.621Z,0.60
2019-04-28T04:44:07.330Z,1.37
2019-04-28T04:44:43.569Z,0.87
2019-04-28T04:45:20.309Z,1.00
2019-04-28T04:46:14.138Z,1.20
2019-04-28T04:46:51.141Z,1.20
2019-04-28T04:47:27.375Z,0.80
2019-04-28T04:48:03.768Z,0.63
2019-04-28T04:48:43.300Z,0.80
2019-04-28T04:49:21.556Z,0.80
2019-04-28T04:50:00.202Z,0.70
2019-04-28T04:50:36.079Z,0.67
2019-04-28T04:51:13.710Z,0.83
2019-04-28T04:51:50.933Z,0.93
2019-04-28T04:52:27.383Z,0.90
2019-04-28T04:53:10.969Z,0.83
2019-04-28T04:53:51.225Z,0.73
2019-04-28T04:54:33.662Z,0.73
2019-04-28T04:55:11.104Z,0.73
2019-04-28T04:55:47.525Z,0.60
2019-04-28T04:56:23.740Z,0.80
2019-04-28T04:57:00.182Z,0.80
2019-04-28T04:57:36.478Z,1.00
2019-04-28T04:58:12.798Z,1.10
2019-04-28T04:58:50.427Z,0.73
2019-04-28T04:59:30.049Z,0.97
2019-04-28T05:00:09.910Z,1.00
2019-04-28T05:01:10.650Z,1.07
2019-04-28T05:02:26.748Z,0.80
2019-04-28T05:03:21.101Z,0.70
2019-04-28T05:04:12.901Z,1.07
2019-04-28T05:05:25.993Z,0.97
2019-04-28T05:06:04.012Z,0.63
2019-04-28T05:06:41.590Z,1.00
2019-04-28T05:07:19.569Z,1.47
2019-04-28T05:07:56.109Z,1.03
2019-04-28T05:08:32.855Z,0.80
2019-04-28T05:09:10.676Z,0.60
2019-04-28T05:09:46.970Z,0.67
2019-04-28T05:10:23.866Z,1.00
2019-04-28T05:11:00.955Z,1.00
2019-04-28T05:11:37.384Z,1.03
2019-04-28T05:12:13.784Z,1.10
2019-04-28T05:12:51.830Z,0.93
2019-04-28T05:13:29.919Z,0.80
2019-04-28T05:14:07.587Z,1.30
2019-04-28T05:14:43.996Z,1.20
2019-04-28T05:15:22.930Z,1.00
2019-04-28T05:15:59.855Z,1.47
2019-04-28T05:16:36.345Z,1.23
2019-04-28T05:17:12.628Z,1.30
2019-04-28T05:17:50.103Z,1.40
2019-04-28T05:18:26.384Z,1.33
2019-04-28T05:19:02.672Z,1.00
2019-04-28T05:19:40.196Z,1.83
2019-04-28T05:20:16.615Z,1.40
2019-04-28T05:20:52.889Z,1.83
2019-04-28T05:21:32.868Z,1.40
2019-04-28T05:22:07.316Z,1.63
2019-04-28T05:22:52.649Z,1.77
2019-04-28T05:23:53.510Z,1.37
2019-04-28T05:24:54.494Z,1.40
2019-04-28T05:25:35.725Z,1.33
2019-04-28T05:26:12.922Z,1.93
2019-04-28T05:26:51.423Z,2.50
2019-04-28T05:27:27.480Z,1.93
2019-04-28T05:28:03.763Z,1.40
2019-04-28T05:28:50.575Z,1.53
2019-04-28T05:29:26.462Z,2.00
2019-04-28T05:30:03.783Z,2.17
2019-04-28T05:30:39.655Z,2.00
2019-04-28T05:31:22.956Z,2.30
2019-04-28T05:31:54.747Z,2.43
2019-04-28T05:32:41.621Z,1.80
2019-04-28T05:33:07.558Z,2.07
2019-04-28T05:33:46.284Z,1.83
2019-04-28T05:34:24.246Z,2.10
2019-04-28T05:35:00.697Z,1.60
2019-04-28T05:35:37.000Z,2.20
2019-04-28T05:36:13.284Z,1.60
2019-04-28T05:36:50.529Z,1.90
2019-04-28T05:37:29.630Z,1.70
2019-04-28T05:38:05.976Z,2.37
2019-04-28T05:38:42.831Z,1.67
2019-04-28T05:39:19.645Z,2.70
2019-04-28T05:39:55.980Z,1.60
2019-04-28T05:40:32.278Z,2.20
2019-04-28T05:41:10.564Z,1.83
2019-04-28T05:41:47.334Z,1.83
2019-04-28T05:42:23.656Z,1.63
2019-04-28T05:43:00.861Z,2.67
2019-04-28T05:43:37.503Z,2.10
2019-04-28T05:44:13.818Z,1.87
2019-04-28T05:44:50.566Z,2.40
2019-04-28T05:45:26.956Z,2.00
2019-04-28T05:46:03.325Z,2.40
2019-04-28T05:46:40.362Z,2.17
2019-04-28T05:47:16.703Z,2.80
2019-04-28T05:47:53.069Z,2.03
2019-04-28T05:48:44.638Z,2.20
2019-04-28T05:49:39.742Z,2.90
2019-04-28T05:50:25.012Z,2.20
2019-04-28T05:51:04.863Z,2.00
2019-04-28T05:51:41.524Z,3.17
2019-04-28T05:52:50.126Z,2.40
2019-04-28T05:53:41.545Z,2.50
2019-04-28T05:54:36.759Z,1.53
2019-04-28T05:55:17.653Z,1.80
2019-04-28T05:56:01.221Z,1.60
2019-04-28T05:56:42.955Z,1.73
2019-04-28T05:57:23.427Z,2.37
2019-04-28T05:58:23.329Z,1.73
2019-04-28T05:59:12.716Z,2.53
2019-04-28T06:00:03.547Z,3.50
2019-04-28T06:00:57.273Z,2.70
2019-04-28T06:01:41.064Z,2.10
2019-04-28T06:02:22.110Z,2.97
2019-04-28T06:03:00.667Z,3.73
2019-04-28T06:03:37.631Z,3.43
2019-04-28T06:04:16.236Z,3.93
2019-04-28T06:04:52.581Z,2.63
2019-04-28T06:05:32.013Z,3.00
2019-04-28T06:06:11.809Z,2.97
2019-04-28T06:06:50.227Z,2.60
2019-04-28T06:07:52.233Z,2.53
2019-04-28T06:08:40.633Z,1.50
2019-04-28T06:09:35.983Z,1.20
2019-04-28T06:10:12.487Z,1.50
2019-04-28T06:10:49.848Z,1.50
2019-04-28T06:11:36.326Z,1.60
2019-04-28T06:12:15.041Z,1.60
2019-04-28T06:12:51.370Z,1.50
2019-04-28T06:13:27.698Z,1.13
2019-04-28T06:14:04.281Z,1.33
2019-04-28T06:14:43.399Z,1.30
2019-04-28T06:15:20.437Z,1.37
2019-04-28T06:15:56.776Z,1.20
2019-04-28T06:16:36.611Z,1.20
2019-04-28T06:17:12.993Z,1.57
2019-04-28T06:17:50.535Z,0.83
2019-04-28T06:18:30.775Z,1.40
2019-04-28T06:19:10.279Z,1.67
2019-04-28T06:19:46.789Z,1.47
2019-04-28T06:20:30.392Z,1.63
2019-04-28T06:21:08.364Z,1.47
2019-04-28T06:21:44.874Z,2.10
2019-04-28T06:22:21.242Z,1.60
2019-04-28T06:22:58.403Z,1.17
2019-04-28T06:23:34.673Z,1.23
2019-04-28T06:24:10.912Z,1.43
2019-04-28T06:24:47.274Z,1.10
2019-04-28T06:25:26.340Z,1.00
2019-04-28T06:26:02.688Z,1.03
2019-04-28T06:26:39.204Z,1.20
2019-04-28T06:27:15.587Z,1.47
2019-04-28T06:27:51.914Z,1.17
2019-04-28T06:28:28.273Z,0.97
2019-04-28T06:29:05.191Z,1.00
2019-04-28T06:29:41.493Z,0.90
2019-04-28T06:30:18.077Z,1.40
2019-04-28T06:30:54.423Z,1.17
2019-04-28T06:31:30.752Z,1.20
2019-04-28T06:32:07.286Z,1.10
2019-04-28T06:32:43.672Z,1.17
2019-04-28T06:33:20.068Z,1.00
2019-04-28T06:34:01.118Z,1.73
2019-04-28T06:34:37.496Z,1.53
2019-04-28T06:35:13.849Z,1.23
2019-04-28T06:35:51.495Z,1.50
2019-04-28T06:36:28.008Z,1.63
2019-04-28T06:37:04.555Z,1.20
2019-04-28T06:37:42.058Z,1.10
2019-04-28T06:38:18.395Z,1.10
2019-04-28T06:38:55.969Z,1.40
2019-04-28T06:39:33.278Z,1.70
2019-04-28T06:40:09.615Z,1.33
2019-04-28T06:40:46.151Z,1.33
2019-04-28T06:41:23.589Z,1.20
2019-04-28T06:41:59.899Z,1.30
2019-04-28T06:42:36.334Z,1.73
2019-04-28T06:43:12.828Z,1.47
2019-04-28T06:43:52.793Z,1.40
2019-04-28T06:44:30.496Z,1.23
2019-04-28T06:45:08.287Z,1.13
2019-04-28T06:45:44.526Z,1.20
2019-04-28T06:46:23.759Z,1.20
2019-04-28T06:47:00.082Z,0.90
2019-04-28T06:47:36.513Z,1.47
2019-04-28T06:48:13.040Z,1.07
2019-04-28T06:48:50.646Z,1.17
2019-04-28T06:49:27.009Z,0.80
2019-04-28T06:50:04.926Z,1.03
2019-04-28T06:50:41.296Z,1.07
2019-04-28T06:51:17.629Z,1.23
2019-04-28T06:51:53.840Z,1.27
2019-04-28T06:52:30.034Z,0.87
2019-04-28T06:53:06.295Z,1.33
2019-04-28T06:53:42.540Z,1.50
2019-04-28T06:54:19.116Z,1.50
2019-04-28T06:54:55.654Z,1.30
2019-04-28T06:55:42.653Z,1.37
2019-04-28T06:56:18.953Z,1.20
2019-04-28T06:56:55.376Z,1.17
2019-04-28T06:57:34.217Z,1.30
2019-04-28T06:58:10.404Z,1.47
2019-04-28T06:58:58.370Z,1.40
2019-04-28T06:59:26.206Z,1.30
2019-04-28T07:00:02.740Z,1.03
2019-04-28T07:00:39.406Z,1.37
2019-04-28T07:01:15.823Z,1.77
2019-04-28T07:01:52.659Z,1.33
2019-04-28T07:02:29.050Z,1.23
2019-04-28T07:03:17.074Z,1.40
2019-04-28T07:03:47.349Z,1.43
2019-04-28T07:04:23.615Z,1.40
2019-04-28T07:05:02.329Z,1.97
2019-04-28T07:05:37.929Z,1.33
2019-04-28T07:06:14.473Z,1.37
2019-04-28T07:06:50.803Z,1.27
2019-04-28T07:07:28.916Z,1.40
2019-04-28T07:08:05.175Z,1.27
2019-04-28T07:08:41.718Z,1.10
2019-04-28T07:09:18.003Z,1.20
2019-04-28T07:09:54.434Z,1.20
2019-04-28T07:10:30.602Z,1.33
2019-04-28T07:11:07.057Z,1.10
2019-04-28T07:11:43.389Z,1.50
2019-04-28T07:12:19.768Z,1.40
2019-04-28T07:12:56.137Z,1.23
2019-04-28T07:13:32.422Z,1.33
2019-04-28T07:14:10.282Z,1.10
2019-04-28T07:14:46.513Z,1.63
2019-04-28T07:15:22.826Z,1.03
2019-04-28T07:16:00.372Z,1.00
2019-04-28T07:16:36.814Z,1.37
2019-04-28T07:17:13.184Z,1.20
2019-04-28T07:17:51.506Z,1.23
2019-04-28T07:18:33.327Z,1.00
2019-04-28T07:19:11.085Z,1.50
2019-04-28T07:19:51.380Z,0.97
2019-04-28T07:20:48.002Z,1.10
2019-04-28T07:21:47.440Z,1.10
2019-04-28T07:22:28.272Z,1.50
2019-04-28T07:23:06.116Z,0.80
2019-04-28T07:23:42.485Z,1.07
2019-04-28T07:24:19.062Z,0.73
2019-04-28T07:24:55.929Z,0.80
2019-04-28T07:25:33.730Z,1.00
2019-04-28T07:26:10.276Z,1.07
2019-04-28T07:26:59.741Z,0.93
2019-04-28T07:27:38.997Z,0.80
2019-04-28T07:28:18.380Z,1.00
2019-04-28T07:28:56.094Z,1.17
2019-04-28T07:29:36.971Z,1.13
2019-04-28T07:30:14.214Z,0.90
2019-04-28T07:30:50.750Z,1.00
2019-04-28T07:31:29.655Z,0.93
2019-04-28T07:32:15.206Z,1.17
2019-04-28T07:32:52.214Z,0.63
2019-04-28T07:33:35.881Z,0.93
2019-04-28T07:34:22.044Z,0.93
2019-04-28T07:34:59.903Z,0.90
2019-04-28T07:35:37.411Z,1.10
2019-04-28T07:36:13.865Z,0.90
2019-04-28T07:36:50.652Z,1.00
2019-04-28T07:37:30.237Z,1.07
2019-04-28T07:38:06.685Z,1.00
2019-04-28T07:38:45.496Z,0.90
2019-04-28T07:39:21.834Z,0.77
2019-04-28T07:40:02.669Z,0.90
2019-04-28T07:40:39.418Z,0.70
2019-04-28T07:41:15.818Z,0.70
2019-04-28T07:41:52.113Z,0.53
2019-04-28T07:42:29.632Z,0.60
2019-04-28T07:43:07.440Z,1.00
2019-04-28T07:43:44.829Z,0.60
2019-04-28T07:44:21.226Z,0.73
2019-04-28T07:44:57.627Z,1.00
2019-04-28T07:45:33.974Z,0.60
2019-04-28T07:46:10.366Z,0.70
2019-04-28T07:46:46.780Z,0.80
2019-04-28T07:47:23.030Z,0.90
2019-04-28T07:47:59.476Z,0.90
2019-04-28T07:48:37.233Z,1.00
2019-04-28T07:49:15.061Z,0.90
2019-04-28T07:49:57.630Z,0.67
2019-04-28T07:50:35.184Z,0.77
2019-04-28T07:51:24.641Z,0.93
2019-04-28T07:52:24.675Z,0.90
2019-04-28T07:53:19.001Z,0.80
2019-04-28T07:54:09.374Z,1.00
2019-04-28T07:54:50.753Z,1.00
2019-04-28T07:55:27.094Z,1.10
2019-04-28T07:56:04.393Z,0.90
2019-04-28T07:56:50.976Z,0.87
2019-04-28T07:57:27.500Z,0.90
2019-04-28T07:58:03.715Z,0.70
2019-04-28T07:58:40.925Z,0.90
2019-04-28T07:59:18.627Z,0.87
2019-04-28T07:59:55.744Z,0.57
2019-04-28T08:00:32.475Z,0.53
2019-04-28T08:01:09.887Z,0.87
2019-04-28T08:01:46.398Z,1.00
2019-04-28T08:02:24.559Z,0.70
2019-04-28T08:03:00.953Z,0.83
2019-04-28T08:03:48.679Z,0.70
2019-04-28T08:04:18.032Z,0.60
2019-04-28T08:04:54.976Z,0.60
2019-04-28T08:05:31.331Z,0.80
2019-04-28T08:06:07.726Z,0.67
2019-04-28T08:06:44.055Z,0.50
2019-04-28T08:07:22.599Z,0.70
2019-04-28T08:07:59.037Z,0.63
2019-04-28T08:08:38.995Z,1.03
2019-04-28T08:09:17.770Z,0.60
2019-04-28T08:09:54.275Z,0.80
2019-04-28T08:10:33.824Z,0.80
2019-04-28T08:11:15.283Z,0.63
2019-04-28T08:11:51.848Z,0.90
2019-04-28T08:12:28.792Z,0.60
2019-04-28T08:13:07.766Z,0.67
2019-04-28T08:13:45.501Z,0.70
2019-04-28T08:14:21.958Z,0.53
2019-04-28T08:14:59.788Z,0.70
2019-04-28T08:15:36.117Z,0.70
2019-04-28T08:16:12.557Z,0.80
2019-04-28T08:16:48.966Z,0.60
2019-04-28T08:17:25.360Z,0.73
2019-04-28T08:18:01.850Z,0.60
2019-04-28T08:18:38.190Z,0.90
2019-04-28T08:19:14.600Z,0.80
2019-04-28T08:20:11.770Z,1.00
2019-04-28T08:20:48.074Z,0.67
2019-04-28T08:21:29.219Z,0.70
2019-04-28T08:22:08.313Z,0.70
2019-04-28T08:22:45.072Z,0.60
2019-04-28T08:23:24.002Z,0.73
2019-04-28T08:24:01.531Z,0.73
2019-04-28T08:24:37.795Z,0.60
2019-04-28T08:25:14.364Z,0.90
2019-04-28T08:25:51.319Z,0.80
2019-04-28T08:26:29.691Z,0.80
2019-04-28T08:27:06.667Z,0.70
2019-04-28T08:27:44.447Z,1.00
2019-04-28T08:28:20.960Z,0.90
2019-04-28T08:28:58.592Z,0.87
2019-04-28T08:29:58.956Z,0.93
2019-04-28T08:30:40.716Z,0.50
2019-04-28T08:31:18.808Z,0.80
2019-04-28T08:32:17.526Z,1.00
2019-04-28T08:33:22.902Z,0.93
2019-04-28T08:34:05.369Z,0.80
2019-04-28T08:34:41.782Z,0.80
2019-04-28T08:35:25.656Z,1.10
2019-04-28T08:36:03.342Z,1.07
2019-04-28T08:36:42.153Z,1.03
2019-04-28T08:37:20.070Z,0.90
2019-04-28T08:37:58.737Z,0.90
2019-04-28T08:38:35.253Z,0.83
2019-04-28T08:39:13.294Z,0.87
2019-04-28T08:39:49.510Z,0.87
2019-04-28T08:40:25.858Z,1.03
2019-04-28T08:41:03.084Z,1.10
2019-04-28T08:41:39.520Z,1.13
2019-04-28T08:42:18.533Z,0.80
2019-04-28T08:42:57.361Z,1.30
2019-04-28T08:43:34.438Z,0.60
2019-04-28T08:44:10.699Z,0.80
2019-04-28T08:44:47.934Z,1.27
2019-04-28T08:45:26.139Z,0.97
2019-04-28T08:46:03.106Z,1.20
2019-04-28T08:46:39.250Z,0.90
2019-04-28T08:47:16.771Z,0.80
2019-04-28T08:47:53.114Z,0.60